NCAR-RAP Real-Time Weather Data

Output produced by METARs form (20 February 2019  17:36 UTC)
found at http://weather.rap.ucar.edu/surface/
 
RJGG 201700Z 32024KT 9999 FEW030 BKN/// 09/03 Q1019 NOSIG
RJGG 201630Z 33021KT 9999 FEW030 BKN/// 09/03 Q1019 NOSIG
RJGG 201600Z 33022KT 9999 FEW030 BKN/// 09/03 Q1019 NOSIG
RJGG 201530Z 33022G32KT 9999 FEW030 SCT040 09/03 Q1018 NOSIG
RJGG 201500Z 33023KT 9999 FEW030 09/03 Q1018 NOSIG
RJGG 201430Z 33022KT 9999 FEW030 SCT050 09/04 Q1018 NOSIG
RJGG 201400Z 33022KT 9999 FEW030 SCT040 09/05 Q1018 NOSIG
RJGG 201330Z 32017KT 9999 FEW030 SCT040 10/05 Q1018 NOSIG
RJGG 201300Z 34020KT 9999 FEW030 BKN040 10/05 Q1018 NOSIG
RJGG 201230Z 34019KT 9999 FEW030 SCT070 10/05 Q1018 NOSIG
RJGG 201200Z 35019KT 9999 FEW030 SCT040 10/04 Q1018 NOSIG
RJGG 201130Z 36020KT 9999 FEW030 10/04 Q1017 NOSIG
RJGG 201100Z 36021KT 9999 FEW030 10/04 Q1017 NOSIG
RJGG 201030Z 36022KT 9999 FEW020 SCT070 11/03 Q1017 NOSIG
RJGG 201000Z 36019KT 9999 FEW020 BKN060 10/05 Q1016 NOSIG
RJGG 200930Z 32023KT 9999 FEW020 BKN060 11/05 Q1016 NOSIG
RJGG 200900Z 32020KT 9999 FEW020 11/06 Q1016 NOSIG
RJGG 200830Z 32021KT 9999 FEW020 BKN050 11/06 Q1015 NOSIG
RJGG 200800Z 32017KT 9999 FEW020 BKN050 12/07 Q1015 NOSIG
RJGG 200730Z 32017KT 9999 FEW020 SCT050 12/07 Q1014 NOSIG
RJGG 200700Z 32015KT 9999 FEW020 BKN050 12/08 Q1014 NOSIG
RJGG 200630Z 31011KT 9999 FEW020 BKN045 12/08 Q1014 BECMG 32022KT
RJGG 200600Z 31011KT 9999 FEW020 BKN040 12/08 Q1013 BECMG 32022KT
RJGG 200530Z 31013KT 9999 FEW020 BKN040 12/08 Q1013 NOSIG
RJGG 200500Z 33011KT 9999 FEW020 BKN040 12/08 Q1013 NOSIG
RJGG 200430Z 31008KT 9999 FEW015 BKN045 12/09 Q1013 NOSIG
RJGG 200400Z 30009KT 9999 FEW015 BKN040 13/09 Q1014 NOSIG
RJGG 200330Z 26008KT 9999 FEW015 BKN040 12/10 Q1014 BECMG 30014KT
RJGG 200300Z 26006KT 9999 FEW015 BKN045 12/10 Q1014 BECMG 30014KT
RJGG 200230Z 26007KT 9999 FEW015 BKN045 12/10 Q1014 BECMG 30012KT
RJGG 200200Z 28007KT 9999 FEW015 BKN045 12/10 Q1015 NOSIG
RJGG 200130Z 28008KT 9999 FEW015 BKN040 12/10 Q1015 NOSIG
RJGG 200100Z 31004KT 9999 FEW015 BKN040 12/09 Q1015 NOSIG
RJGG 200030Z 28005KT 9999 FEW010 BKN035 BKN060 11/09 Q1015 NOSIG
RJGG 200000Z 35004KT 9999 FEW010 BKN035 BKN060 12/10 Q1015 NOSIG
RJGG 192330Z 33007KT 9999 FEW008 BKN035 BKN060 11/09 Q1015 NOSIG
RJGG 192300Z 25006KT 8000 FEW008 BKN035 11/10 Q1015 BECMG 30006KT
RJGG 192230Z VRB02KT 6000 FEW008 SCT040 BKN060 10/09 Q1014 NOSIG
RJGG 192200Z 31004KT 6000 FEW008 SCT040 BKN060 10/09 Q1014 NOSIG
RJGG 192130Z 25005KT 220V300 6000 FEW008 SCT040 BKN060 10/09 Q1014 BECMG 30006KT
RJGG 192100Z 27005KT 6000 FEW008 SCT040 BKN060 10/09 Q1014 NOSIG
RJGG 192030Z 28005KT 8000 FEW008 SCT040 BKN060 10/09 Q1014 NOSIG
RJGG 192000Z 35006KT 9999 FEW008 BKN060 10/09 Q1013 NOSIG
RJGG 191930Z 29005KT 9999 FEW008 BKN040 10/09 Q1014 NOSIG
RJGG 191900Z 29004KT 9999 FEW008 BKN035 10/09 Q1014 NOSIG
RJGG 191830Z 31004KT 9999 FEW008 BKN025 10/09 Q1014 NOSIG
RJGG 191800Z 33004KT 9000 FEW008 BKN025 10/09 Q1014 NOSIG
RJGG 191730Z 32005KT 6000 FEW008 BKN025 10/09 Q1014 TEMPO 4000 BR
RJGG 191700Z VRB02KT 4500 BR FEW003 BKN016 10/09 Q1014 TEMPO 3000 BR
RJGG 191630Z 01004KT 4500 BR FEW003 BKN012 10/09 Q1014 NOSIG
RJGG 191600Z 35006KT 4500 BR FEW003 BKN010 09/09 Q1014 BECMG 6000 NSW
RJGG 191530Z 35008KT 5000 BR FEW003 BKN009 09/08 Q1014 BECMG FEW008 BKN012
RJGG 191500Z 35007KT 5000 BR FEW003 BKN008 09/08 Q1014 BECMG FEW008 BKN012
RJGG 191430Z 35007KT 6000 VCSH FEW003 BKN008 09/08 Q1014 NOSIG
RJGG 191400Z 35011KT 6000 VCSH FEW003 BKN008 09/09 Q1014 NOSIG
RJGG 191330Z 36008KT 6000 VCSH FEW003 BKN009 09/08 Q1014 NOSIG
RJGG 191300Z 35012KT 6000 FEW003 BKN009 09/08 Q1014 NOSIG
RJGG 191230Z 35010KT 5000 VCSH BR FEW003 BKN008 09/08 Q1014 NOSIG
RJGG 191200Z 35012KT 5000 -RA BR FEW002 BKN007 09/08 Q1014 NOSIG
RJGG 191130Z 35008KT 6000 -RA FEW002 BKN006 09/08 Q1014 NOSIG
RJGG 191100Z 35013KT 7000 -RA FEW002 BKN006 08/08 Q1015 NOSIG
RJGG 191030Z 34009KT 7000 FEW002 BKN006 09/08 Q1015 NOSIG
RJGG 191000Z 10007G17KT 7000 VCSH FEW002 BKN006 10/09 Q1015 BECMG 36006KT
RJGG 190930Z 09011KT 8000 FEW002 BKN006 10/09 Q1015 NOSIG
RJGG 190900Z 12016KT 4000 -RA BR FEW002 SCT005 BKN015 09/09 Q1016 TEMPO 2000 -RA BR FEW002 BKN008
RJGG 190830Z VRB03KT 1500 R36/P1800N RA BR FEW002 BKN005 BKN008 09/08 Q1017 BECMG 02006KT
RJGG 190800Z VRB03KT 1500 R36/P1800N RA BR FEW002 BKN005 09/08 Q1017 BECMG 02006KT
RJGG 190730Z 36007KT 1500 R36/P1800N RA BR FEW003 BKN005 08/08 Q1017 NOSIG
RJGG 190700Z 36005KT 1500 R36/1800D RA BR FEW003 BKN005 BKN008 08/07 Q1018 NOSIG
RJGG 190630Z 03005KT 1500 R36/P1800N RA BR FEW003 BKN005 BKN008 08/07 Q1018 NOSIG
RJGG 190600Z 02006KT 1500 R36/P1800N -RA BR FEW003 BKN005 BKN008 07/06 Q1018 NOSIG
RJGG 190530Z 01007KT 3000 -RA BR FEW003 BKN008 BKN010 07/06 Q1019 NOSIG
RJGG 190500Z 01011KT 3500 -RA BR FEW005 BKN008 BKN010 07/06 Q1019 TEMPO 3000 -RA BR
RJGG 190430Z 36012KT 4000 -RA BR FEW005 SCT008 BKN010 07/05 Q1020 TEMPO FEW004 BKN008
RJGG 190400Z 36012KT 4000 -RA BR FEW006 SCT012 BKN020 06/05 Q1021 TEMPO FEW008 BKN012
RJGG 190330Z 35011KT 4000 -RA BR FEW012 SCT020 BKN025 07/06 Q1021 NOSIG
RJGG 190300Z 35010KT 5000 -RA BR FEW015 BKN025 07/05 Q1022 TEMPO 4000 -RA BR
RJGG 190230Z 34006KT 6000 -RA FEW015 BKN025 07/05 Q1023 NOSIG
RJGG 190200Z 33005KT 5000 -RA BR FEW020 BKN030 07/05 Q1024 NOSIG
RJGG 190130Z 30004KT 5000 -RA BR FEW020 SCT030 BKN040 07/05 Q1024 TEMPO 4000 -RA BR
RJGG 190100Z 00000KT 5000 -RA BR FEW030 SCT040 BKN050 08/04 Q1024 BECMG 04005KT
RJGG 190030Z 04005KT 010V070 7000 -RA FEW030 SCT050 BKN060 07/04 Q1024 NOSIG
RJGG 190000Z 03006KT 7000 -RA FEW030 BKN060 07/04 Q1025 TEMPO 4000 -RA BR
RJGG 182330Z 03006KT 7000 -RA FEW030 BKN060 07/03 Q1025 NOSIG
RJGG 182300Z 02006KT 9999 -RA FEW030 BKN060 08/03 Q1025 NOSIG
RJGG 182230Z 36006KT 9999 -RA FEW030 SCT050 OVC070 07/03 Q1026 NOSIG
RJGG 182200Z 35006KT 9999 -RA FEW030 OVC070 07/04 Q1026 NOSIG
RJGG 182130Z 36007KT 9999 -RA FEW030 BKN070 OVC100 07/03 Q1025 NOSIG
RJGG 182100Z 36007KT 9999 -RA FEW030 OVC080 08/03 Q1025 NOSIG
RJGG 182030Z 36007KT 9999 FEW050 BKN080 08/02 Q1025 NOSIG
RJGG 182000Z 33007KT 9999 FEW050 BKN080 07/03 Q1025 NOSIG
RJGG 181930Z 34004KT 9999 FEW050 BKN080 08/03 Q1025 NOSIG
RJGG 181900Z 00000KT 9999 FEW050 BKN090 08/01 Q1025 BECMG 36005KT
RJGG 181830Z 01001KT 9999 FEW050 BKN090 07/01 Q1025 NOSIG
RJGG 181800Z VRB01KT 9999 FEW050 BKN090 07/01 Q1025 BECMG 36005KT
RJGG 181730Z 01003KT 330V040 9999 FEW050 BKN090 07/00 Q1025 NOSIG
RJGG 181700Z 05005KT 9999 FEW050 BKN100 07/01 Q1025 NOSIG
RJGG 181630Z VRB02KT 9999 FEW050 BKN100 07/01 Q1026 BECMG 04005KT
RJGG 181600Z 09007KT 9999 FEW050 BKN110 07/01 Q1025 BECMG 04005KT
RJGG 181530Z 07004KT 9999 FEW050 BKN110 08/02 Q1025 NOSIG
RJGG 181500Z 05004KT 9999 FEW050 BKN120 08/03 Q1026 NOSIG
RJGG 181430Z 01003KT 9999 FEW050 BKN140 BKN/// 08/03 Q1026 NOSIG
RJGG 181400Z 07003KT 020V090 CAVOK 07/03 Q1026 NOSIG
RJGG 181330Z VRB02KT CAVOK 07/02 Q1026 NOSIG
RJGG 181300Z 07002KT CAVOK 07/02 Q1026 NOSIG
RJGG 181230Z 34003KT 310V020 CAVOK 08/03 Q1026 NOSIG
RJGG 181200Z 28005KT CAVOK 09/03 Q1026 NOSIG
RJGG 181130Z 26004KT CAVOK 09/04 Q1025 BECMG 30005KT
RJGG 181100Z 31006KT CAVOK 09/04 Q1025 NOSIG
RJGG 181030Z 32008KT CAVOK 10/03 Q1025 NOSIG
RJGG 181000Z 33008KT CAVOK 10/04 Q1025 NOSIG
RJGG 180930Z 31006KT CAVOK 10/04 Q1024 NOSIG
RJGG 180900Z 28011KT 9999 FEW050 BKN/// 10/03 Q1024 NOSIG
RJGG 180830Z 27010KT 9999 FEW050 BKN/// 11/03 Q1024 NOSIG
RJGG 180800Z 27012KT 9999 FEW050 BKN/// 11/02 Q1023 NOSIG
RJGG 180730Z 26012KT 9999 FEW050 BKN/// 11/03 Q1023 BECMG 25010KT
RJGG 180700Z 25011KT CAVOK 11/02 Q1024 NOSIG
RJGG 180630Z 23009KT CAVOK 11/03 Q1024 NOSIG
RJGG 180600Z 24007KT CAVOK 11/01 Q1023 NOSIG